Time;durP1;ratioP1;P1;durP2;ratioP2;P2;SDS_P1;SDS_P2;PMS_P1;PMS_P2;Temp;Humidity;BMP_temperature;BMP_pressure;BME280_temperature;BME280_humidity;BME280_pressure;Samples;Min_cycle;Max_cycle;Signal;HPM_P1;HPM_P2
2021/07/12 00:02:22;;;;;;;10.70;4.05;;;;;;;18.52;79.71;100186.63;125644;1093;22800;-61
2021/07/12 00:04:54;;;;;;;12.97;4.27;;;;;;;18.54;80.37;100186.08;125668;1092;22813;-61
2021/07/12 00:07:27;;;;;;;9.47;4.37;;;;;;;18.57;80.27;100187.85;126384;1093;27221;-62
2021/07/12 00:10:05;;;;;;;10.30;3.95;;;;;;;18.60;80.37;100188.85;125764;1092;24474;-62
2021/07/12 00:12:38;;;;;;;10.90;3.80;;;;;;;18.60;80.62;100178.31;125770;1093;22767;-61
2021/07/12 00:15:12;;;;;;;10.83;4.83;;;;;;;18.61;80.29;100171.34;125926;1093;22844;-62
2021/07/12 00:17:43;;;;;;;12.47;4.73;;;;;;;18.63;80.53;100184.94;126077;1093;22838;-64
2021/07/12 00:20:18;;;;;;;9.10;4.30;;;;;;;18.63;80.57;100185.70;125712;1093;22777;-63
2021/07/12 00:22:50;;;;;;;9.80;4.67;;;;;;;18.64;80.90;100184.42;126039;1093;22804;-62
2021/07/12 00:25:25;;;;;;;15.73;4.60;;;;;;;18.62;81.00;100183.42;125765;1093;27690;-62
2021/07/12 00:27:57;;;;;;;14.75;5.50;;;;;;;18.58;80.58;100192.97;125757;1093;27693;-63
2021/07/12 00:30:32;;;;;;;23.33;5.17;;;;;;;18.56;80.54;100191.97;125823;1093;22800;-61
2021/07/12 00:33:04;;;;;;;16.50;5.60;;;;;;;18.56;80.92;100189.91;125845;1093;22770;-61
2021/07/12 00:35:36;;;;;;;13.45;3.70;;;;;;;18.57;81.20;100190.68;125765;1092;22779;-61
2021/07/12 00:38:09;;;;;;;18.37;4.83;;;;;;;18.60;81.07;100197.33;125786;1093;22777;-60
2021/07/12 00:40:41;;;;;;;18.50;5.30;;;;;;;18.61;81.04;100193.19;125810;1093;22775;-62
2021/07/12 00:43:15;;;;;;;9.67;4.13;;;;;;;18.60;81.01;100192.45;126068;1093;22764;-62
2021/07/12 00:45:47;;;;;;;14.40;5.53;;;;;;;18.56;81.55;100200.45;125725;1093;22790;-61
2021/07/12 00:48:18;;;;;;;14.80;5.10;;;;;;;18.56;81.08;100201.22;125775;1093;22797;-60
2021/07/12 00:50:50;;;;;;;12.00;4.50;;;;;;;18.56;81.32;100186.31;125933;1093;22815;-61
2021/07/12 00:53:21;;;;;;;14.00;4.87;;;;;;;18.56;81.28;100191.97;125809;1093;22787;-62
2021/07/12 00:55:53;;;;;;;14.73;3.87;;;;;;;18.56;81.55;100189.14;125865;1093;22925;-61
2021/07/12 00:58:34;;;;;;;18.23;5.17;;;;;;;18.57;81.46;100190.68;125867;1093;28563;-63
2021/07/12 01:01:07;;;;;;;20.40;4.83;;;;;;;18.57;81.34;100193.51;125811;1093;25845;-61
2021/07/12 01:03:39;;;;;;;22.10;4.90;;;;;;;18.55;81.32;100194.05;125909;1093;22812;-63
2021/07/12 01:06:14;;;;;;;16.87;4.37;;;;;;;18.54;81.38;100189.69;125735;1092;22779;-61
2021/07/12 01:08:48;;;;;;;13.77;4.10;;;;;;;18.53;81.72;100193.83;125881;1093;25867;-61
2021/07/12 01:11:31;;;;;;;13.80;3.75;;;;;;;18.52;81.30;100188.69;125749;1093;22773;-61
2021/07/12 01:14:10;;;;;;;15.03;5.03;;;;;;;18.50;81.72;100189.23;125726;1093;22767;-61
2021/07/12 01:16:55;;;;;;;15.20;4.60;;;;;;;18.46;81.40;100191.59;125897;1093;22794;-61
2021/07/12 01:19:52;;;;;;;18.10;4.93;;;;;;;18.42;81.51;100199.59;125719;1093;26251;-61
2021/07/12 01:22:58;;;;;;;18.85;5.15;;;;;;;18.40;81.42;100207.07;125962;1093;22816;-62
2021/07/12 01:26:09;;;;;;;15.65;5.20;;;;;;;18.37;81.73;100206.06;125244;1096;22914;-62
2021/07/12 01:29:16;;;;;;;12.43;4.17;;;;;;;18.34;82.02;100192.25;125234;1096;23178;-61
2021/07/12 01:32:28;;;;;;;20.70;5.00;;;;;;;18.33;81.63;100199.22;125223;1100;22789;-61
2021/07/12 01:35:08;;;;;;;14.50;4.27;;;;;;;18.33;81.94;100205.61;125174;1100;22844;-62
2021/07/12 01:37:45;;;;;;;15.77;4.70;;;;;;;18.31;82.08;100199.73;125191;1099;22879;-61
2021/07/12 01:40:27;;;;;;;15.05;4.30;;;;;;;18.32;82.19;100200.50;125283;1099;22778;-62
2021/07/12 01:43:07;;;;;;;14.95;4.25;;;;;;;18.31;81.66;100199.73;125193;1100;22829;-62
2021/07/12 01:45:47;;;;;;;16.43;4.75;;;;;;;18.31;81.83;100185.59;125211;1100;24458;-61
2021/07/12 01:48:27;;;;;;;18.50;5.35;;;;;;;18.30;82.14;100180.48;125228;1100;22793;-61
2021/07/12 01:51:01;;;;;;;18.73;5.23;;;;;;;18.30;81.97;100174.84;125144;1100;22812;-63
2021/07/12 01:53:45;;;;;;;19.70;5.33;;;;;;;18.29;82.01;100167.67;125361;1100;22782;-62
2021/07/12 01:56:21;;;;;;;25.65;6.60;;;;;;;18.25;82.22;100159.48;125010;1098;22819;-63
2021/07/12 01:59:03;;;;;;;19.90;5.15;;;;;;;18.22;82.46;100159.79;125095;1100;26331;-61
2021/07/12 02:01:37;;;;;;;22.17;5.07;;;;;;;18.22;82.20;100154.91;125187;1100;25894;-61
2021/07/12 02:04:12;;;;;;;21.13;4.93;;;;;;;18.21;82.22;100144.89;125199;1096;25883;-61
2021/07/12 02:06:44;;;;;;;25.60;4.75;;;;;;;18.20;82.08;100132.08;125175;1096;22874;-60
2021/07/12 02:09:17;;;;;;;13.97;4.80;;;;;;;18.21;82.24;100121.52;125291;1093;22765;-61
2021/07/12 02:11:50;;;;;;;13.60;5.00;;;;;;;18.21;82.22;100122.28;125997;1092;22794;-62
2021/07/12 02:14:25;;;;;;;17.05;5.00;;;;;;;18.20;82.20;100123.59;125751;1093;22844;-61
2021/07/12 02:16:59;;;;;;;15.73;4.30;;;;;;;18.19;82.16;100122.06;125725;1093;25619;-63
2021/07/12 02:19:32;;;;;;;17.00;4.90;;;;;;;18.18;82.13;100122.60;125659;1093;22851;-62
2021/07/12 02:22:05;;;;;;;17.10;4.90;;;;;;;18.17;82.07;100109.76;125828;1093;22761;-61
2021/07/12 02:24:38;;;;;;;14.80;4.90;;;;;;;18.14;82.61;100116.49;125863;1093;22728;-61
2021/07/12 02:27:14;;;;;;;15.75;4.75;;;;;;;18.13;82.33;100117.78;125806;1093;27721;-61
2021/07/12 02:29:47;;;;;;;14.27;4.63;;;;;;;18.14;82.88;100136.27;125881;1092;22844;-61
2021/07/12 02:32:20;;;;;;;15.60;4.90;;;;;;;18.12;82.84;100139.64;125837;1093;23525;-61
2021/07/12 02:34:54;;;;;;;15.63;5.20;;;;;;;18.12;83.00;100139.64;125690;1093;22847;-62
2021/07/12 02:37:27;;;;;;;20.90;5.50;;;;;;;18.12;82.90;100141.69;125772;1093;27641;-62
2021/07/12 02:40:00;;;;;;;20.20;5.48;;;;;;;18.11;82.82;100149.39;125717;1092;22845;-61
2021/07/12 02:42:32;;;;;;;15.75;4.95;;;;;;;18.12;83.43;100139.64;125770;1093;27233;-61
2021/07/12 02:45:04;;;;;;;18.40;5.10;;;;;;;18.13;83.14;100134.73;125766;1092;22818;-61
2021/07/12 02:47:38;;;;;;;15.50;5.50;;;;;;;18.16;83.29;100144.97;125787;1093;26507;-61
2021/07/12 02:50:14;;;;;;;16.80;5.15;;;;;;;18.19;83.52;100141.84;125789;1093;22760;-61
2021/07/12 02:53:05;;;;;;;15.53;4.87;;;;;;;18.21;83.32;100144.89;125840;1093;22791;-63
2021/07/12 02:55:37;;;;;;;23.83;5.60;;;;;;;18.23;83.55;100147.95;126161;1093;22797;-63
2021/07/12 02:58:10;;;;;;;12.80;4.60;;;;;;;18.25;84.02;100145.34;125727;1092;22774;-62
2021/07/12 03:00:43;;;;;;;14.80;5.15;;;;;;;18.24;84.01;100138.19;125664;1093;25568;-62
2021/07/12 03:03:15;;;;;;;19.90;5.35;;;;;;;18.24;84.14;100138.19;125824;1093;24203;-62
2021/07/12 03:05:50;;;;;;;13.35;5.45;;;;;;;18.25;83.67;100144.61;125855;1093;22791;-61
2021/07/12 03:08:29;;;;;;;12.77;5.23;;;;;;;18.29;84.46;100142.23;125848;1093;22760;-62
2021/07/12 03:11:02;;;;;;;13.70;5.83;;;;;;;18.33;83.90;100139.87;125872;1091;22791;-62
2021/07/12 03:13:42;;;;;;;15.70;6.55;;;;;;;18.35;84.44;100137.27;125824;1093;22801;-61
2021/07/12 03:16:15;;;;;;;14.13;5.43;;;;;;;18.37;84.20;100129.76;125823;1093;22784;-62
2021/07/12 03:18:51;;;;;;;13.60;5.40;;;;;;;18.39;84.42;100123.59;125807;1093;22786;-62
2021/07/12 03:21:26;;;;;;;14.23;5.70;;;;;;;18.41;84.32;100109.69;125842;1093;22797;-61
2021/07/12 03:24:02;;;;;;;26.00;7.70;;;;;;;18.40;84.48;100108.14;125799;1093;26261;-61
2021/07/12 03:26:34;;;;;;;34.53;7.27;;;;;;;18.39;84.76;100109.46;125810;1093;22794;-62
2021/07/12 03:29:06;;;;;;;27.35;7.70;;;;;;;18.35;84.86;100109.00;125757;1093;22786;-63
2021/07/12 03:31:43;;;;;;;27.23;7.53;;;;;;;18.33;85.05;100108.78;125628;1092;23244;-63
2021/07/12 03:34:16;;;;;;;27.50;7.37;;;;;;;18.32;85.06;100104.41;125668;1092;26248;-62
2021/07/12 03:36:51;;;;;;;24.00;8.40;;;;;;;18.31;85.31;100114.95;125777;1093;23257;-63
2021/07/12 03:39:25;;;;;;;21.37;7.83;;;;;;;18.35;85.20;100137.27;125693;1093;22928;-63
2021/07/12 03:42:03;;;;;;;17.25;7.35;;;;;;;18.40;85.28;100139.23;125882;1093;22802;-63
2021/07/12 03:44:39;;;;;;;19.75;7.58;;;;;;;18.44;85.24;100134.06;125825;1093;22806;-62
2021/07/12 03:47:23;;;;;;;19.27;8.03;;;;;;;18.48;85.63;100140.17;125896;1093;22957;-63
2021/07/12 03:50:02;;;;;;;16.87;6.90;;;;;;;18.53;85.24;100145.77;125862;1093;25881;-62
2021/07/12 03:52:40;;;;;;;18.00;7.77;;;;;;;18.58;85.29;100146.95;125726;1093;22778;-62
2021/07/12 03:55:14;;;;;;;17.28;7.13;;;;;;;18.63;85.23;100160.26;125614;1093;22807;-62
2021/07/12 03:57:50;;;;;;;28.50;8.80;;;;;;;18.67;85.17;100162.77;125761;1091;27454;-63
2021/07/12 04:00:26;;;;;;;17.10;8.10;;;;;;;18.69;85.70;100171.48;125737;1093;26286;-59
2021/07/12 04:02:58;;;;;;;16.83;7.77;;;;;;;18.70;85.87;100173.79;125907;1092;22797;-61
2021/07/12 04:05:30;;;;;;;15.13;8.60;;;;;;;18.72;85.52;100162.70;126082;1093;26287;-59
2021/07/12 04:08:01;;;;;;;18.10;9.40;;;;;;;18.76;85.69;100168.04;125763;1093;22776;-59
2021/07/12 04:10:32;;;;;;;21.07;10.20;;;;;;;18.77;86.20;100164.66;125743;1093;22806;-60
2021/07/12 04:13:04;;;;;;;22.60;12.50;;;;;;;18.77;86.04;100167.49;125779;1092;24433;-60
2021/07/12 04:15:35;;;;;;;24.30;13.57;;;;;;;18.79;86.02;100161.32;125805;1093;22812;-62
2021/07/12 04:18:07;;;;;;;27.85;16.00;;;;;;;18.81;85.81;100162.28;125700;1093;24440;-59
2021/07/12 04:20:41;;;;;;;31.43;16.93;;;;;;;18.82;86.29;100166.66;125724;1093;22777;-59
2021/07/12 04:23:13;;;;;;;33.80;17.27;;;;;;;18.83;85.80;100182.31;125804;1092;22819;-61
2021/07/12 04:25:44;;;;;;;36.00;18.03;;;;;;;18.84;86.24;100186.68;125882;1093;22781;-60
2021/07/12 04:28:16;;;;;;;31.10;14.45;;;;;;;18.81;85.99;100182.09;125709;1093;24303;-61
2021/07/12 04:30:48;;;;;;;26.50;13.00;;;;;;;18.74;85.70;100182.73;125734;1093;26019;-58
2021/07/12 04:33:19;;;;;;;22.40;11.20;;;;;;;18.70;85.83;100190.76;125745;1093;22814;-60
2021/07/12 04:35:53;;;;;;;26.38;12.53;;;;;;;18.69;85.71;100182.78;125680;1093;23209;-60
2021/07/12 04:38:25;;;;;;;23.63;11.73;;;;;;;18.66;86.11;100156.38;126164;1093;22774;-61
2021/07/12 04:40:56;;;;;;;25.13;12.20;;;;;;;18.62;85.96;100129.70;126266;1093;22809;-62
2021/07/12 04:43:28;;;;;;;27.83;12.03;;;;;;;18.58;86.25;100124.34;125874;1093;22760;-62
2021/07/12 04:45:59;;;;;;;30.30;14.27;;;;;;;18.53;86.13;100123.15;126064;1093;23234;-62
2021/07/12 04:48:33;;;;;;;36.57;13.90;;;;;;;18.51;86.69;100117.27;125952;1093;22755;-62
2021/07/12 04:51:04;;;;;;;35.00;12.15;;;;;;;18.50;86.44;100115.73;125957;1093;22784;-62
2021/07/12 04:53:35;;;;;;;31.70;13.83;;;;;;;18.49;86.65;100111.39;125882;1093;26229;-62
2021/07/12 04:56:08;;;;;;;28.50;13.90;;;;;;;18.52;86.85;100118.01;125811;1093;22758;-63
2021/07/12 04:58:44;;;;;;;35.43;16.78;;;;;;;18.55;86.71;100116.95;125924;1092;22772;-63
2021/07/12 05:01:16;;;;;;;40.40;19.90;;;;;;;18.60;86.36;100127.42;126148;1093;22839;-62
2021/07/12 05:03:49;;;;;;;35.03;18.83;;;;;;;18.64;86.50;100115.79;125796;1093;24495;-63
2021/07/12 05:06:22;;;;;;;39.45;18.70;;;;;;;18.67;86.91;100123.18;125889;1093;25842;-64
2021/07/12 05:08:53;;;;;;;35.57;17.33;;;;;;;18.68;86.65;100114.18;125861;1093;24421;-64
2021/07/12 05:11:30;;;;;;;30.53;16.93;;;;;;;18.71;86.48;100123.63;125771;1093;22817;-63
2021/07/12 05:14:06;;;;;;;31.63;17.43;;;;;;;18.70;86.76;100124.95;125865;1093;22777;-63
2021/07/12 05:16:42;;;;;;;37.87;18.10;;;;;;;18.68;86.79;100136.03;125916;1093;22810;-62
2021/07/12 05:19:15;;;;;;;37.57;19.53;;;;;;;18.68;86.83;100133.20;125941;1092;22791;-62
2021/07/12 05:21:49;;;;;;;35.07;18.80;;;;;;;18.70;86.60;100128.55;125874;1092;22851;-62
2021/07/12 05:24:21;;;;;;;34.37;19.07;;;;;;;18.74;87.06;100131.05;125868;1093;22764;-62
2021/07/12 05:26:52;;;;;;;33.05;18.55;;;;;;;18.76;86.65;100134.10;125866;1092;22754;-62
2021/07/12 05:29:24;;;;;;;34.40;17.65;;;;;;;18.80;86.89;100143.03;125860;1093;24480;-62
2021/07/12 05:31:55;;;;;;;35.07;20.57;;;;;;;18.82;87.29;100141.20;125955;1093;22778;-62
2021/07/12 05:34:31;;;;;;;32.77;19.70;;;;;;;18.85;87.16;100145.02;125936;1093;22829;-62
2021/07/12 05:37:06;;;;;;;36.30;19.20;;;;;;;18.88;86.63;100158.84;125826;1092;22855;-62
2021/07/12 05:39:37;;;;;;;34.70;18.97;;;;;;;18.93;86.65;100162.89;125817;1093;22808;-62
2021/07/12 05:42:09;;;;;;;31.53;20.63;;;;;;;18.97;86.79;100174.66;125879;1093;24539;-62
2021/07/12 05:44:41;;;;;;;31.37;19.27;;;;;;;19.01;87.16;100166.61;126245;1093;22919;-62
2021/07/12 05:47:12;;;;;;;30.37;18.37;;;;;;;19.02;87.30;100156.80;125892;1092;22781;-62
2021/07/12 05:49:44;;;;;;;32.07;19.77;;;;;;;19.05;87.20;100169.89;126000;1093;23005;-62
2021/07/12 05:52:15;;;;;;;31.40;19.57;;;;;;;19.09;86.99;100175.99;125927;1092;24351;-62
2021/07/12 05:54:47;;;;;;;31.77;18.53;;;;;;;19.12;86.80;100175.66;125869;1093;24423;-63
2021/07/12 05:57:19;;;;;;;31.15;17.60;;;;;;;19.14;86.81;100169.48;125922;1092;22772;-63
2021/07/12 05:59:50;;;;;;;28.43;17.35;;;;;;;19.16;86.99;100175.38;126030;1093;27655;-63
2021/07/12 06:02:23;;;;;;;25.58;15.13;;;;;;;19.18;86.47;100178.42;126457;1093;22918;-62
2021/07/12 06:04:54;;;;;;;26.13;16.05;;;;;;;19.20;86.63;100176.56;125919;1091;24442;-62
2021/07/12 06:07:26;;;;;;;32.60;16.47;;;;;;;19.24;86.64;100184.75;125789;1093;22781;-62
2021/07/12 06:09:59;;;;;;;28.93;15.57;;;;;;;19.25;86.39;100186.27;125876;1092;22852;-62
2021/07/12 06:12:31;;;;;;;25.37;13.87;;;;;;;19.28;86.37;100190.85;125824;1093;22809;-62
2021/07/12 06:15:04;;;;;;;26.20;13.03;;;;;;;19.30;86.16;100200.31;126102;1092;22851;-62
2021/07/12 06:17:38;;;;;;;23.95;13.70;;;;;;;19.31;86.50;100196.19;125780;1093;25835;-62
2021/07/12 06:20:15;;;;;;;23.23;13.93;;;;;;;19.32;86.75;100194.90;125891;1093;22767;-62
2021/07/12 06:22:48;;;;;;;22.45;13.13;;;;;;;19.34;86.86;100197.21;128715;1093;22751;-62
2021/07/12 06:25:22;;;;;;;23.63;14.13;;;;;;;19.37;86.69;100198.95;125962;1093;22770;-62
2021/07/12 06:27:53;;;;;;;26.18;14.18;;;;;;;19.39;86.81;100195.59;126014;1093;23792;-62
2021/07/12 06:30:29;;;;;;;23.40;14.45;;;;;;;19.39;86.61;100184.27;125812;1093;27144;-62
2021/07/12 06:33:01;;;;;;;22.58;13.38;;;;;;;19.39;86.98;100179.34;125961;1093;22855;-62
2021/07/12 06:35:33;;;;;;;23.65;13.05;;;;;;;19.41;87.28;100192.98;126003;1093;22754;-62
2021/07/12 06:38:06;;;;;;;20.30;12.75;;;;;;;19.43;87.07;100187.54;125980;1093;22884;-62
2021/07/12 06:40:38;;;;;;;21.13;12.40;;;;;;;19.43;87.04;100182.63;125845;1093;22912;-62
2021/07/12 06:43:09;;;;;;;22.25;13.10;;;;;;;19.43;87.26;100190.38;126032;1093;22741;-62
2021/07/12 06:45:41;;;;;;;20.10;10.95;;;;;;;19.41;86.90;100179.57;125958;1093;22820;-62
2021/07/12 06:48:12;;;;;;;23.48;11.40;;;;;;;19.41;87.00;100182.40;125818;1093;27186;-61
2021/07/12 06:50:43;;;;;;;22.50;12.53;;;;;;;19.41;87.05;100182.40;125991;1093;22771;-62
2021/07/12 06:53:17;;;;;;;18.75;11.35;;;;;;;19.41;87.10;100188.06;126008;1093;22835;-62
2021/07/12 06:55:51;;;;;;;24.70;12.90;;;;;;;19.42;87.20;100181.11;125975;1093;26311;-63
2021/07/12 06:58:23;;;;;;;25.98;13.03;;;;;;;19.42;86.74;100177.51;126286;1093;22857;-63
2021/07/12 07:00:54;;;;;;;27.88;15.03;;;;;;;19.42;87.04;100183.94;126097;1093;22849;-62
2021/07/12 07:03:26;;;;;;;25.35;14.95;;;;;;;19.45;87.28;100184.93;125868;1093;22852;-62
2021/07/12 07:05:57;;;;;;;26.68;14.43;;;;;;;19.45;87.08;100185.67;126291;1093;22784;-62
2021/07/12 07:08:29;;;;;;;22.45;13.60;;;;;;;19.48;87.30;100200.82;125932;1093;27619;-62
2021/07/12 07:11:02;;;;;;;23.95;13.90;;;;;;;19.48;86.95;100193.09;126082;1093;22778;-61
2021/07/12 07:13:35;;;;;;;22.77;12.27;;;;;;;19.51;86.75;100199.75;126016;1092;22877;-61
2021/07/12 07:16:07;;;;;;;21.80;12.03;;;;;;;19.53;86.89;100195.08;125939;1093;24460;-62
2021/07/12 07:18:39;;;;;;;21.15;11.78;;;;;;;19.55;86.63;100186.03;125855;1093;22775;-61
2021/07/12 07:21:11;;;;;;;23.87;12.53;;;;;;;19.57;87.01;100178.52;126014;1093;22763;-62
2021/07/12 07:23:42;;;;;;;19.98;10.83;;;;;;;19.56;86.56;100170.55;125963;1093;22792;-62
2021/07/12 07:26:14;;;;;;;22.90;10.43;;;;;;;19.56;86.28;100176.98;126004;1093;22826;-62
2021/07/12 07:28:46;;;;;;;19.05;9.05;;;;;;;19.59;86.52;100181.58;126079;1093;22771;-61
2021/07/12 07:31:20;;;;;;;19.30;9.08;;;;;;;19.62;86.73;100179.70;126047;1092;24958;-62
2021/07/12 07:33:55;;;;;;;17.05;8.65;;;;;;;19.66;86.72;100183.74;125946;1093;22783;-61
2021/07/12 07:36:26;;;;;;;17.70;9.30;;;;;;;19.71;86.82;100188.55;125901;1093;22701;-63
2021/07/12 07:39:08;;;;;;;18.43;8.60;;;;;;;19.77;87.36;100182.77;125920;1093;22964;-61
2021/07/12 07:41:40;;;;;;;17.20;9.00;;;;;;;19.81;86.63;100188.88;126030;1093;27240;-62
2021/07/12 07:44:14;;;;;;;17.37;9.03;;;;;;;19.85;86.90;100180.80;125945;1093;22788;-62
2021/07/12 07:46:45;;;;;;;14.55;7.85;;;;;;;19.89;86.39;100167.84;126079;1093;22896;-61
2021/07/12 07:49:16;;;;;;;16.50;8.93;;;;;;;19.93;87.14;100178.84;126021;1093;22854;-62
2021/07/12 07:51:49;;;;;;;15.87;8.67;;;;;;;19.98;86.78;100200.64;125987;1093;22880;-62
2021/07/12 07:54:20;;;;;;;19.95;10.05;;;;;;;19.99;87.17;100207.83;126025;1093;22844;-62
2021/07/12 07:56:52;;;;;;;20.60;9.85;;;;;;;20.00;87.28;100201.63;125955;1093;23252;-62
2021/07/12 07:59:23;;;;;;;16.63;9.78;;;;;;;20.04;87.29;100199.23;125915;1093;26531;-62
2021/07/12 08:01:54;;;;;;;19.75;10.35;;;;;;;20.05;87.37;100203.58;125949;1093;23942;-62
2021/07/12 08:04:27;;;;;;;17.55;9.30;;;;;;;20.07;87.19;100200.22;125921;1092;22758;-62
2021/07/12 08:07:00;;;;;;;18.75;9.03;;;;;;;20.08;87.25;100198.89;125882;1092;22766;-62
2021/07/12 08:09:32;;;;;;;16.07;8.83;;;;;;;20.08;86.90;100199.66;126024;1093;22784;-62
2021/07/12 08:12:04;;;;;;;18.98;9.95;;;;;;;20.12;87.37;100202.16;125995;1092;22808;-62
2021/07/12 08:14:35;;;;;;;18.68;10.40;;;;;;;20.18;87.37;100199.97;125949;1093;22835;-62
2021/07/12 08:17:07;;;;;;;17.90;9.35;;;;;;;20.22;87.29;100200.42;126006;1092;22789;-62
2021/07/12 08:19:39;;;;;;;14.95;8.13;;;;;;;20.23;87.08;100198.36;126003;1093;22803;-62
2021/07/12 08:22:10;;;;;;;16.80;8.93;;;;;;;20.24;87.28;100197.04;125926;1093;24539;-62
2021/07/12 08:24:43;;;;;;;16.95;8.48;;;;;;;20.26;86.70;100188.78;125991;1093;28934;-62
2021/07/12 08:27:14;;;;;;;14.23;6.50;;;;;;;20.28;86.70;100181.23;125931;1093;23467;-61
2021/07/12 08:29:46;;;;;;;15.18;7.45;;;;;;;20.31;86.60;100182.98;126101;1093;22759;-61
2021/07/12 08:32:17;;;;;;;15.10;8.13;;;;;;;20.34;86.61;100192.47;125945;1093;22852;-61
2021/07/12 08:34:49;;;;;;;13.40;6.90;;;;;;;20.37;87.24;100191.36;125964;1093;22774;-61
2021/07/12 08:37:20;;;;;;;13.73;6.88;;;;;;;20.40;86.98;100205.19;125980;1093;22781;-61
2021/07/12 08:39:54;;;;;;;20.87;11.67;;;;;;;20.40;86.55;100204.45;126016;1093;24486;-61
2021/07/12 08:42:28;;;;;;;19.65;12.90;;;;;;;20.42;86.94;100213.17;125969;1093;22839;-62
2021/07/12 08:45:00;;;;;;;78.15;48.20;;;;;;;20.46;87.57;100208.70;126000;1093;22788;-62
2021/07/12 08:47:33;;;;;;;70.10;43.10;;;;;;;20.49;87.47;100209.65;126011;1093;22767;-62
2021/07/12 08:50:06;;;;;;;42.63;24.53;;;;;;;20.50;86.94;100208.35;126054;1093;22912;-62
2021/07/12 08:52:37;;;;;;;23.63;11.73;;;;;;;20.52;86.98;100194.38;126068;1093;22911;-62
2021/07/12 08:55:14;;;;;;;18.70;8.23;;;;;;;20.57;87.10;100187.81;125948;1093;24454;-62
2021/07/12 08:57:58;;;;;;;13.10;6.25;;;;;;;20.63;87.02;100179.97;126030;1093;22752;-62
2021/07/12 09:00:45;;;;;;;16.25;6.70;;;;;;;20.65;86.35;100171.66;125990;1093;23627;-63
2021/07/12 09:03:27;;;;;;;12.90;4.30;;;;;;;20.65;86.14;100169.56;125978;1093;24606;-62
2021/07/12 09:06:05;;;;;;;10.60;4.53;;;;;;;20.67;85.79;100177.55;126200;1093;25954;-62
2021/07/12 09:08:48;;;;;;;8.68;4.15;;;;;;;20.74;86.96;100174.02;125989;1092;22845;-62
2021/07/12 09:11:23;;;;;;;9.58;3.88;;;;;;;20.80;86.88;100181.09;125925;1093;22788;-62
2021/07/12 09:14:00;;;;;;;9.23;4.20;;;;;;;20.90;87.65;100181.36;125984;1093;22784;-62
2021/07/12 09:16:37;;;;;;;11.18;4.28;;;;;;;20.94;86.76;100179.70;126063;1092;22795;-62
2021/07/12 09:19:29;;;;;;;8.80;3.93;;;;;;;21.01;87.14;100178.27;126028;1093;23399;-61
2021/07/12 09:22:04;;;;;;;13.17;5.20;;;;;;;21.08;87.03;100174.77;126063;1093;22841;-62
2021/07/12 09:24:49;;;;;;;11.88;5.15;;;;;;;21.13;86.89;100175.93;125964;1093;27200;-62
2021/07/12 09:27:24;;;;;;;9.50;4.73;;;;;;;21.20;86.66;100178.09;125914;1093;26012;-62
2021/07/12 09:30:04;;;;;;;10.58;5.03;;;;;;;21.26;87.25;100170.95;126064;1093;25912;-62
2021/07/12 09:32:38;;;;;;;;;;;;;;;21.35;86.77;100161.19;125954;1093;27169;-62
2021/07/12 09:35:13;;;;;;;11.10;5.08;;;;;;;21.39;86.76;100156.68;125846;1092;23116;-62
2021/07/12 09:37:48;;;;;;;9.60;4.57;;;;;;;21.42;86.46;100155.55;125922;1092;22861;-62
2021/07/12 09:40:21;;;;;;;10.18;4.95;;;;;;;21.47;86.75;100159.56;126221;1093;25980;-62
2021/07/12 09:42:54;;;;;;;10.05;4.75;;;;;;;21.51;86.40;100162.81;125891;1093;27390;-62
2021/07/12 09:45:28;;;;;;;11.48;5.38;;;;;;;21.57;86.50;100161.35;125955;1093;22709;-62
2021/07/12 09:48:09;;;;;;;9.55;4.48;;;;;;;21.63;86.03;100164.03;126138;1093;22760;-62
2021/07/12 09:50:49;;;;;;;11.50;5.13;;;;;;;21.62;85.48;100160.42;125999;1093;22781;-62
2021/07/12 09:53:33;;;;;;;11.58;4.25;;;;;;;21.65;85.16;100167.08;126091;1093;25929;-62
2021/07/12 09:56:18;;;;;;;9.38;4.23;;;;;;;21.74;85.14;100158.05;125933;1093;24564;-62
2021/07/12 09:58:56;;;;;;;30.05;15.50;;;;;;;21.84;85.54;100164.00;125887;1093;22842;-62
2021/07/12 10:01:28;;;;;;;17.03;8.23;;;;;;;21.89;85.78;100165.94;125824;1093;23557;-63
2021/07/12 10:04:01;;;;;;;12.58;5.45;;;;;;;21.95;85.56;100163.70;126018;1093;27444;-63
2021/07/12 10:06:32;;;;;;;10.83;4.50;;;;;;;22.00;85.13;100165.60;125946;1093;22828;-63
2021/07/12 10:09:04;;;;;;;9.85;4.85;;;;;;;22.02;85.07;100165.80;125893;1093;22778;-63
2021/07/12 10:11:36;;;;;;;9.10;4.13;;;;;;;22.08;84.88;100157.88;125952;1093;22820;-62
2021/07/12 10:14:08;;;;;;;8.35;4.00;;;;;;;22.11;84.27;100149.00;126030;1093;22857;-62
2021/07/12 10:16:40;;;;;;;10.93;4.88;;;;;;;22.12;84.26;100150.50;125859;1093;24598;-62
2021/07/12 10:19:11;;;;;;;9.43;4.20;;;;;;;22.16;84.29;100148.06;125848;1093;22789;-62
2021/07/12 10:21:49;;;;;;;10.48;4.78;;;;;;;22.21;84.47;100149.22;125813;1093;22779;-62
2021/07/12 10:24:26;;;;;;;9.50;4.60;;;;;;;22.28;83.59;100148.50;125865;1093;24199;-63
2021/07/12 10:27:00;;;;;;;9.80;4.28;;;;;;;22.42;83.64;100142.11;125880;1093;24453;-63
2021/07/12 10:29:36;;;;;;;8.97;3.87;;;;;;;22.53;83.84;100135.31;126101;1093;24412;-63
2021/07/12 10:32:14;;;;;;;9.73;3.87;;;;;;;22.57;83.19;100127.17;125785;1093;22751;-62
2021/07/12 10:34:48;;;;;;;8.63;4.00;;;;;;;22.59;82.99;100127.39;125934;1092;26518;-63
2021/07/12 10:37:25;;;;;;;12.30;5.63;;;;;;;22.63;82.91;100116.40;125847;1093;22957;-62
2021/07/12 10:40:23;;;;;;;10.53;5.00;;;;;;;22.65;82.60;100113.75;125934;1093;22947;-62
2021/07/12 10:43:02;;;;;;;8.98;4.30;;;;;;;22.75;82.68;100114.70;125863;1093;22780;-62
2021/07/12 10:45:49;;;;;;;7.65;3.45;;;;;;;22.84;82.30;100113.39;126029;1092;23439;-62
2021/07/12 10:48:33;;;;;;;9.25;3.93;;;;;;;22.92;82.22;100109.23;125943;1092;25945;-63
2021/07/12 10:51:19;;;;;;;8.50;3.08;;;;;;;22.93;81.28;100104.27;125962;1093;25332;-62
2021/07/12 10:54:03;;;;;;;8.50;3.00;;;;;;;22.94;81.03;100106.57;126010;1093;24446;-62
2021/07/12 10:56:54;;;;;;;7.88;2.98;;;;;;;22.91;80.31;100104.08;126173;1093;25580;-63
2021/07/12 10:59:31;;;;;;;7.70;3.08;;;;;;;22.86;79.91;100117.20;125897;1093;22778;-62
2021/07/12 11:02:25;;;;;;;8.43;3.03;;;;;;;22.83;80.08;100106.94;125971;1093;22761;-62
2021/07/12 11:05:06;;;;;;;7.30;3.10;;;;;;;22.86;80.21;100102.97;125874;1092;22854;-62
2021/07/12 11:07:46;;;;;;;9.33;3.13;;;;;;;22.93;80.21;100099.34;126903;1093;22764;-62
2021/07/12 11:10:31;;;;;;;7.80;3.05;;;;;;;22.95;79.30;100105.23;126054;1092;24191;-63
2021/07/12 11:13:05;;;;;;;7.15;2.05;;;;;;;22.87;78.23;100107.31;126112;1093;24358;-62
2021/07/12 11:15:45;;;;;;;4.78;2.08;;;;;;;22.80;77.99;100108.05;126130;1092;22761;-62
2021/07/12 11:18:29;;;;;;;9.33;1.90;;;;;;;22.75;78.44;100100.47;126098;1092;22819;-62
2021/07/12 11:21:08;;;;;;;5.30;2.15;;;;;;;22.79;78.90;100100.86;126303;1093;28439;-63
2021/07/12 11:24:15;;;;;;;7.13;2.43;;;;;;;22.80;78.41;100093.82;126169;1091;22788;-63
2021/07/12 11:26:53;;;;;;;7.78;2.18;;;;;;;22.85;78.87;100100.66;129953;1092;22597;-63
2021/07/12 11:29:40;;;;;;;4.95;1.85;;;;;;;22.91;78.06;100099.16;127768;1093;26264;-63
2021/07/12 11:32:22;;;;;;;7.20;1.98;;;;;;;23.00;78.25;100104.30;126080;1093;22763;-63
2021/07/12 11:34:56;;;;;;;4.48;1.68;;;;;;;23.10;77.61;100104.47;126127;1091;22755;-61
2021/07/12 11:37:32;;;;;;;4.25;1.50;;;;;;;23.19;78.16;100093.28;125988;1093;22772;-61
2021/07/12 11:40:05;;;;;;;4.13;1.47;;;;;;;23.28;76.69;100106.94;126176;1093;25861;-62
2021/07/12 11:42:40;;;;;;;3.60;1.30;;;;;;;23.36;75.54;100097.66;126935;1093;22855;-62
2021/07/12 11:45:15;;;;;;;5.78;1.48;;;;;;;23.40;76.22;100101.65;126363;1093;26273;-61
2021/07/12 11:47:52;;;;;;;5.90;1.53;;;;;;;23.52;76.63;100097.06;126080;1093;22799;-62